Time;durP1;ratioP1;P1;durP2;ratioP2;P2;SDS_P1;SDS_P2;PMS_P1;PMS_P2;Temp;Humidity;BMP_temperature;BMP_pressure;BME280_temperature;BME280_humidity;BME280_pressure;Samples;Min_cycle;Max_cycle;Signal;HPM_P1;HPM_P2
2023/11/12 00:00:45;;;;;;;0.63;0.20;;;;;;;;;;4949191;29;20065;-90
2023/11/12 00:03:13;;;;;;;0.00;0.00;;;;;;;;;;4949303;29;20075;-89
2023/11/12 00:05:41;;;;;;;0.00;0.00;;;;;;;;;;4948930;29;20051;-90
2023/11/12 00:08:18;;;;;;;0.00;0.00;;;;;;;;;;4953054;29;20062;-89
2023/11/12 00:10:47;;;;;;;0.10;0.10;;;;;;;;;;4950535;29;20157;-89
2023/11/12 00:13:17;;;;;;;0.00;0.00;;;;;;;;;;4949098;29;20051;-88
2023/11/12 00:15:46;;;;;;;0.00;0.00;;;;;;;;;;4947506;29;20303;-88
2023/11/12 00:18:13;;;;;;;0.10;0.10;;;;;;;;;;4947642;29;20051;-89
2023/11/12 00:20:41;;;;;;;0.10;0.10;;;;;;;;;;4947074;29;20065;-89
2023/11/12 00:23:13;;;;;;;0.00;0.00;;;;;;;;;;4948834;29;20105;-88
2023/11/12 00:25:41;;;;;;;0.00;0.00;;;;;;;;;;4948971;29;20070;-89
2023/11/12 00:28:09;;;;;;;0.00;0.00;;;;;;;;;;4948079;29;20094;-89
2023/11/12 00:30:36;;;;;;;0.10;0.10;;;;;;;;;;4952810;29;20094;-89
2023/11/12 00:33:03;;;;;;;0.00;0.00;;;;;;;;;;4948301;29;20277;-89
2023/11/12 00:35:41;;;;;;;0.00;0.00;;;;;;;;;;4950414;29;20459;-89
2023/11/12 00:38:15;;;;;;;0.00;0.00;;;;;;;;;;4949011;29;20047;-89
2023/11/12 00:40:48;;;;;;;0.00;0.00;;;;;;;;;;4965854;28;20059;-89
2023/11/12 00:43:15;;;;;;;0.00;0.00;;;;;;;;;;4948683;29;20427;-89
2023/11/12 00:45:43;;;;;;;0.00;0.00;;;;;;;;;;4948765;29;20059;-88
2023/11/12 00:48:13;;;;;;;0.00;0.00;;;;;;;;;;4948666;29;20082;-88
2023/11/12 00:50:43;;;;;;;0.00;0.00;;;;;;;;;;4948041;29;20059;-89
2023/11/12 00:53:10;;;;;;;0.00;0.00;;;;;;;;;;4948404;29;20057;-90
2023/11/12 00:55:39;;;;;;;0.43;0.43;;;;;;;;;;4965082;29;20047;-90
2023/11/12 00:58:07;;;;;;;0.00;0.00;;;;;;;;;;4947013;29;20078;-90
2023/11/12 01:00:35;;;;;;;0.00;0.00;;;;;;;;;;4947786;29;20083;-90
2023/11/12 01:03:07;;;;;;;0.00;0.00;;;;;;;;;;4948294;29;20058;-89
2023/11/12 01:05:40;;;;;;;0.00;0.00;;;;;;;;;;4956598;29;20038;-89
2023/11/12 01:08:11;;;;;;;0.00;0.00;;;;;;;;;;4948874;29;20106;-89
2023/11/12 01:10:42;;;;;;;0.00;0.00;;;;;;;;;;4948067;29;20051;-89
2023/11/12 01:13:10;;;;;;;0.05;0.05;;;;;;;;;;4948153;29;20105;-89
2023/11/12 01:22:34;;;;;;;0.00;0.00;;;;;;;;;;4962374;28;20118;-89
2023/11/12 01:25:05;;;;;;;0.00;0.00;;;;;;;;;;4948457;29;20043;-89
2023/11/12 01:27:34;;;;;;;0.20;0.10;;;;;;;;;;4950586;29;20078;-89
2023/11/12 01:30:15;;;;;;;0.00;0.00;;;;;;;;;;4951428;29;20150;-89
2023/11/12 01:32:42;;;;;;;0.00;0.00;;;;;;;;;;4951509;29;20051;-89
2023/11/12 01:35:10;;;;;;;0.00;0.00;;;;;;;;;;4967575;28;20085;-89
2023/11/12 01:37:40;;;;;;;0.10;0.10;;;;;;;;;;4951705;29;20058;-90
2023/11/12 01:40:08;;;;;;;0.00;0.00;;;;;;;;;;4951895;29;20115;-89
2023/11/12 01:42:38;;;;;;;0.00;0.00;;;;;;;;;;4967579;29;20263;-89
2023/11/12 01:45:06;;;;;;;0.00;0.00;;;;;;;;;;4967713;29;20133;-88
2023/11/12 01:47:47;;;;;;;0.00;0.00;;;;;;;;;;4952556;29;20059;-89
2023/11/12 01:50:15;;;;;;;0.00;0.00;;;;;;;;;;4954493;28;20078;-89
2023/11/12 01:52:44;;;;;;;0.10;0.10;;;;;;;;;;4951103;29;20051;-89
2023/11/12 01:55:25;;;;;;;0.00;0.00;;;;;;;;;;4951956;29;20059;-88
2023/11/12 01:57:53;;;;;;;2.20;0.45;;;;;;;;;;4951926;29;20066;-88
2023/11/12 02:00:23;;;;;;;0.00;0.00;;;;;;;;;;4951948;29;20047;-89
2023/11/12 02:02:52;;;;;;;0.00;0.00;;;;;;;;;;4951626;29;20313;-88
2023/11/12 02:05:23;;;;;;;0.00;0.00;;;;;;;;;;4954673;29;20051;-89
2023/11/12 02:07:51;;;;;;;0.03;0.03;;;;;;;;;;4956155;29;20399;-89
2023/11/12 02:10:20;;;;;;;0.00;0.00;;;;;;;;;;4959124;29;20128;-89
2023/11/12 02:12:48;;;;;;;0.00;0.00;;;;;;;;;;4961346;28;20050;-88
2023/11/12 02:15:19;;;;;;;0.00;0.00;;;;;;;;;;4962516;28;20248;-88
2023/11/12 02:17:49;;;;;;;0.13;0.13;;;;;;;;;;4962847;28;20055;-89
2023/11/12 02:20:21;;;;;;;0.10;0.10;;;;;;;;;;4962001;28;20071;-89
2023/11/12 02:22:49;;;;;;;0.10;0.10;;;;;;;;;;4961122;28;20039;-89
2023/11/12 02:25:17;;;;;;;0.00;0.00;;;;;;;;;;4963509;28;20062;-89
2023/11/12 02:27:58;;;;;;;0.10;0.10;;;;;;;;;;4977152;28;20055;-89
2023/11/12 02:30:26;;;;;;;0.10;0.10;;;;;;;;;;4958882;28;20055;-89
2023/11/12 02:32:53;;;;;;;0.00;0.00;;;;;;;;;;4968485;28;20082;-89
2023/11/12 02:35:23;;;;;;;0.00;0.00;;;;;;;;;;4951644;29;20062;-88
2023/11/12 02:37:53;;;;;;;0.20;0.20;;;;;;;;;;4952771;29;20115;-89
2023/11/12 02:40:34;;;;;;;0.10;0.10;;;;;;;;;;4948434;29;20051;-89
2023/11/12 02:43:04;;;;;;;0.00;0.00;;;;;;;;;;4951794;29;20222;-89
2023/11/12 02:45:34;;;;;;;0.08;0.08;;;;;;;;;;4957027;29;20071;-89
2023/11/12 02:48:02;;;;;;;0.00;0.00;;;;;;;;;;4952636;29;20061;-89
2023/11/12 02:50:34;;;;;;;0.00;0.00;;;;;;;;;;4950926;28;20047;-89
2023/11/12 02:53:14;;;;;;;0.38;0.38;;;;;;;;;;4938289;29;20059;-89
2023/11/12 02:55:44;;;;;;;0.10;0.10;;;;;;;;;;4968568;29;20055;-89
2023/11/12 02:58:12;;;;;;;1.65;1.55;;;;;;;;;;4950942;29;20055;-89
2023/11/12 03:00:40;;;;;;;0.17;0.17;;;;;;;;;;4952199;29;20051;-89
2023/11/12 03:03:12;;;;;;;0.00;0.00;;;;;;;;;;4954197;29;20297;-89
2023/11/12 03:05:44;;;;;;;0.00;0.00;;;;;;;;;;4952891;29;20435;-89
2023/11/12 03:08:27;;;;;;;0.00;0.00;;;;;;;;;;4926608;29;20059;-90
2023/11/12 03:11:05;;;;;;;0.00;0.00;;;;;;;;;;4953606;29;20055;-88
2023/11/12 03:13:37;;;;;;;0.00;0.00;;;;;;;;;;4950727;29;20401;-89
2023/11/12 03:16:13;;;;;;;0.00;0.00;;;;;;;;;;4950441;29;20111;-89
2023/11/12 03:18:41;;;;;;;0.10;0.10;;;;;;;;;;4949381;29;20111;-89
2023/11/12 03:21:22;;;;;;;0.10;0.10;;;;;;;;;;4950646;29;20065;-89
2023/11/12 03:23:50;;;;;;;0.10;0.10;;;;;;;;;;4949923;29;20143;-89
2023/11/12 03:26:21;;;;;;;0.00;0.00;;;;;;;;;;4950846;29;20090;-89
2023/11/12 03:28:48;;;;;;;0.10;0.10;;;;;;;;;;4951429;29;20380;-90
2023/11/12 03:31:17;;;;;;;0.03;0.03;;;;;;;;;;4950619;29;20057;-89
2023/11/12 03:33:47;;;;;;;0.10;0.10;;;;;;;;;;4950563;29;20073;-88
2023/11/12 03:36:15;;;;;;;0.10;0.10;;;;;;;;;;4950123;29;20055;-89
2023/11/12 03:38:43;;;;;;;0.00;0.00;;;;;;;;;;4951118;29;20138;-89
2023/11/12 03:41:13;;;;;;;0.10;0.10;;;;;;;;;;4966736;29;20059;-89
2023/11/12 03:43:46;;;;;;;0.20;0.20;;;;;;;;;;4950937;29;20059;-89
2023/11/12 03:46:14;;;;;;;0.00;0.00;;;;;;;;;;4949877;29;20475;-89
2023/11/12 03:48:55;;;;;;;0.10;0.10;;;;;;;;;;4949475;29;20059;-89
2023/11/12 03:51:26;;;;;;;0.00;0.00;;;;;;;;;;4950369;29;20063;-89
2023/11/12 03:54:04;;;;;;;0.00;0.00;;;;;;;;;;4958007;29;20055;-89
2023/11/12 03:56:32;;;;;;;0.00;0.00;;;;;;;;;;4949568;29;20149;-90
2023/11/12 03:59:02;;;;;;;4.47;1.88;;;;;;;;;;4950762;29;20051;-89
2023/11/12 04:01:29;;;;;;;0.00;0.00;;;;;;;;;;4950011;29;20055;-89
2023/11/12 04:03:57;;;;;;;0.00;0.00;;;;;;;;;;4952987;29;20039;-89
2023/11/12 04:06:32;;;;;;;0.00;0.00;;;;;;;;;;4965639;29;20062;-89
2023/11/12 04:09:02;;;;;;;0.00;0.00;;;;;;;;;;4950209;28;20059;-88
2023/11/12 04:11:45;;;;;;;0.00;0.00;;;;;;;;;;4902191;29;20088;-88
2023/11/12 04:14:12;;;;;;;0.00;0.00;;;;;;;;;;4961871;29;20146;-88
2023/11/12 04:16:41;;;;;;;0.00;0.00;;;;;;;;;;4949398;29;20142;-89
2023/11/12 04:19:16;;;;;;;0.00;0.00;;;;;;;;;;4949351;29;20077;-89
2023/11/12 04:21:50;;;;;;;0.00;0.00;;;;;;;;;;4949140;29;20043;-89
2023/11/12 04:24:20;;;;;;;0.00;0.00;;;;;;;;;;4949840;29;20047;-89
2023/11/12 04:26:54;;;;;;;0.00;0.00;;;;;;;;;;4949905;29;20051;-89
2023/11/12 04:29:23;;;;;;;0.00;0.00;;;;;;;;;;4968788;29;20416;-89
2023/11/12 04:31:51;;;;;;;0.00;0.00;;;;;;;;;;4948832;29;20055;-89
2023/11/12 04:34:24;;;;;;;0.08;0.08;;;;;;;;;;4949261;29;20074;-90
2023/11/12 04:36:55;;;;;;;1.38;1.38;;;;;;;;;;4950165;29;20106;-89
2023/11/12 04:39:23;;;;;;;0.28;0.28;;;;;;;;;;4949848;29;20075;-89
2023/11/12 04:41:57;;;;;;;0.00;0.00;;;;;;;;;;4950188;29;20055;-89
2023/11/12 04:44:37;;;;;;;0.10;0.10;;;;;;;;;;4943423;29;20061;-88
2023/11/12 04:47:05;;;;;;;3.63;0.40;;;;;;;;;;4949551;29;20055;-89
2023/11/12 04:49:33;;;;;;;0.00;0.00;;;;;;;;;;4949464;29;20059;-89
2023/11/12 04:52:00;;;;;;;0.15;0.15;;;;;;;;;;4966531;29;20051;-89
2023/11/12 04:54:30;;;;;;;0.70;0.70;;;;;;;;;;4954083;29;20055;-89
2023/11/12 04:56:58;;;;;;;0.00;0.00;;;;;;;;;;4961045;28;20078;-89
2023/11/12 04:59:25;;;;;;;6.50;3.45;;;;;;;;;;4949471;29;20051;-89
2023/11/12 05:02:06;;;;;;;0.00;0.00;;;;;;;;;;4951050;29;20256;-88
2023/11/12 05:04:34;;;;;;;0.00;0.00;;;;;;;;;;4951193;29;20086;-88
2023/11/12 05:07:05;;;;;;;0.00;0.00;;;;;;;;;;4949970;29;20203;-89
2023/11/12 05:09:46;;;;;;;1.10;1.10;;;;;;;;;;4963988;29;20044;-90
2023/11/12 05:12:14;;;;;;;1.55;1.45;;;;;;;;;;4949302;29;20054;-90
2023/11/12 05:14:42;;;;;;;1.30;1.30;;;;;;;;;;4948464;29;20062;-90
2023/11/12 05:17:12;;;;;;;0.00;0.00;;;;;;;;;;4956242;29;20066;-90
2023/11/12 05:19:44;;;;;;;0.10;0.10;;;;;;;;;;4950333;29;20049;-89
2023/11/12 05:22:14;;;;;;;0.00;0.00;;;;;;;;;;4950832;29;20051;-88
2023/11/12 05:24:45;;;;;;;0.00;0.00;;;;;;;;;;4949489;29;20062;-89
2023/11/12 05:27:15;;;;;;;0.05;0.05;;;;;;;;;;4947914;29;20066;-90
2023/11/12 05:29:46;;;;;;;1.77;1.67;;;;;;;;;;4948531;29;20051;-89
2023/11/12 05:32:15;;;;;;;0.00;0.00;;;;;;;;;;4947896;29;20142;-89
2023/11/12 05:34:56;;;;;;;0.00;0.00;;;;;;;;;;4942273;29;20060;-90
2023/11/12 05:37:36;;;;;;;1.65;1.30;;;;;;;;;;4943586;29;20309;-90
2023/11/12 05:40:18;;;;;;;0.10;0.10;;;;;;;;;;4941067;29;20118;-90
2023/11/12 05:42:48;;;;;;;0.40;0.40;;;;;;;;;;4943665;29;20050;-89
2023/11/12 05:45:19;;;;;;;0.10;0.10;;;;;;;;;;4944129;29;20107;-90
2023/11/12 05:47:46;;;;;;;0.10;0.10;;;;;;;;;;4949275;29;20118;-89
2023/11/12 05:50:15;;;;;;;0.00;0.00;;;;;;;;;;4944682;29;20070;-89
2023/11/12 05:52:45;;;;;;;0.00;0.00;;;;;;;;;;4944963;29;20405;-90
2023/11/12 05:55:16;;;;;;;0.10;0.10;;;;;;;;;;4944266;29;20393;-89
2023/11/12 05:57:44;;;;;;;0.00;0.00;;;;;;;;;;4945216;29;20056;-89
2023/11/12 06:00:32;;;;;;;0.00;0.00;;;;;;;;;;4946090;29;20051;-89
2023/11/12 06:02:59;;;;;;;0.03;0.03;;;;;;;;;;4945871;29;20079;-89
2023/11/12 06:05:27;;;;;;;0.00;0.00;;;;;;;;;;4945194;29;20052;-88
2023/11/12 06:08:00;;;;;;;0.00;0.00;;;;;;;;;;4946364;29;20044;-88
2023/11/12 06:10:31;;;;;;;0.00;0.00;;;;;;;;;;4944839;29;20051;-89
2023/11/12 06:13:08;;;;;;;0.00;0.00;;;;;;;;;;4945967;29;20043;-89
2023/11/12 06:15:48;;;;;;;0.00;0.00;;;;;;;;;;4946138;29;20062;-89
2023/11/12 06:18:28;;;;;;;0.00;0.00;;;;;;;;;;4947471;29;20027;-90
2023/11/12 06:20:56;;;;;;;0.00;0.00;;;;;;;;;;4948172;29;20047;-88
2023/11/12 06:23:24;;;;;;;0.00;0.00;;;;;;;;;;4948397;28;20146;-88
2023/11/12 06:25:53;;;;;;;0.00;0.00;;;;;;;;;;4948120;29;20391;-89
2023/11/12 06:28:24;;;;;;;0.00;0.00;;;;;;;;;;4948562;29;20052;-89
2023/11/12 06:30:57;;;;;;;0.00;0.00;;;;;;;;;;4947994;29;20504;-89
2023/11/12 06:33:35;;;;;;;0.00;0.00;;;;;;;;;;4958852;28;20088;-89
2023/11/12 06:36:04;;;;;;;0.00;0.00;;;;;;;;;;4951141;29;20074;-89
2023/11/12 06:38:33;;;;;;;0.00;0.00;;;;;;;;;;4953144;29;20169;-89
2023/11/12 06:41:00;;;;;;;0.15;0.15;;;;;;;;;;4959235;29;20103;-89
2023/11/12 06:43:28;;;;;;;0.00;0.00;;;;;;;;;;4952175;29;20093;-89
2023/11/12 06:45:55;;;;;;;0.00;0.00;;;;;;;;;;4952770;28;20043;-89
2023/11/12 06:48:29;;;;;;;1.15;0.70;;;;;;;;;;4969727;28;20051;-88
2023/11/12 06:51:02;;;;;;;0.08;0.08;;;;;;;;;;4969968;28;20055;-88
2023/11/12 06:53:32;;;;;;;0.00;0.00;;;;;;;;;;4972274;28;20061;-89
2023/11/12 06:56:04;;;;;;;0.00;0.00;;;;;;;;;;4987043;28;20366;-88
2023/11/12 06:58:44;;;;;;;0.05;0.05;;;;;;;;;;4992360;28;20050;-88
2023/11/12 07:01:13;;;;;;;0.03;0.03;;;;;;;;;;4972149;28;20054;-88
2023/11/12 07:03:54;;;;;;;0.10;0.10;;;;;;;;;;4963713;28;20069;-89
2023/11/12 07:06:33;;;;;;;0.00;0.00;;;;;;;;;;4973841;28;20191;-89
2023/11/12 07:09:02;;;;;;;0.00;0.00;;;;;;;;;;4968452;28;20097;-88
2023/11/12 07:11:28;;;;;;;0.10;0.10;;;;;;;;;;4969490;28;20322;-88
2023/11/12 07:13:58;;;;;;;0.00;0.00;;;;;;;;;;4970690;28;20449;-88
2023/11/12 07:16:28;;;;;;;0.60;0.45;;;;;;;;;;4970037;28;20078;-89
2023/11/12 07:18:58;;;;;;;0.10;0.10;;;;;;;;;;4972583;28;20167;-90
2023/11/12 07:21:30;;;;;;;0.10;0.10;;;;;;;;;;4970252;28;20074;-90
2023/11/12 07:23:57;;;;;;;0.10;0.10;;;;;;;;;;4987315;28;20053;-90
2023/11/12 07:26:28;;;;;;;1.13;0.55;;;;;;;;;;4969588;28;20118;-90
2023/11/12 07:28:57;;;;;;;0.00;0.00;;;;;;;;;;4970030;28;20078;-91
2023/11/12 07:31:24;;;;;;;0.10;0.10;;;;;;;;;;4986617;28;20061;-92
2023/11/12 07:33:52;;;;;;;1.42;1.40;;;;;;;;;;4969286;28;20074;-92
2023/11/12 07:36:24;;;;;;;0.25;0.25;;;;;;;;;;4991635;28;20054;-90
2023/11/12 07:38:51;;;;;;;0.08;0.08;;;;;;;;;;4980387;28;20133;-92
2023/11/12 07:41:23;;;;;;;0.00;0.00;;;;;;;;;;4987792;28;20114;-92
2023/11/12 07:43:50;;;;;;;0.00;0.00;;;;;;;;;;4989897;28;20110;-91
2023/11/12 07:48:52;;;;;;;0.00;0.00;;;;;;;;;;3477789;23;21472;-92
2023/11/12 07:51:19;;;;;;;0.00;0.00;;;;;;;;;;4971465;28;20146;-90
2023/11/12 07:53:49;;;;;;;0.00;0.00;;;;;;;;;;4971129;28;20034;-90
2023/11/12 07:56:21;;;;;;;0.00;0.00;;;;;;;;;;4988265;28;20078;-91
2023/11/12 07:58:56;;;;;;;0.52;0.30;;;;;;;;;;4988608;28;20115;-91
2023/11/12 08:01:25;;;;;;;0.00;0.00;;;;;;;;;;4971995;28;20081;-88
2023/11/12 08:03:55;;;;;;;2.90;2.72;;;;;;;;;;4976797;28;20055;-92
2023/11/12 08:06:23;;;;;;;0.10;0.10;;;;;;;;;;4989413;28;20051;-92
2023/11/12 08:08:52;;;;;;;0.10;0.10;;;;;;;;;;4971633;28;20055;-91
2023/11/12 08:11:20;;;;;;;0.10;0.10;;;;;;;;;;4989049;28;20058;-91
2023/11/12 08:13:47;;;;;;;0.00;0.00;;;;;;;;;;4972104;28;20051;-92
2023/11/12 08:18:46;;;;;;;2.90;1.55;;;;;;;;;;4965567;29;20066;-91
2023/11/12 08:21:26;;;;;;;0.00;0.00;;;;;;;;;;4972280;28;20035;-91
2023/11/12 08:23:54;;;;;;;0.10;0.10;;;;;;;;;;4950096;29;20376;-91
2023/11/12 08:26:21;;;;;;;0.00;0.00;;;;;;;;;;4969328;29;20460;-91
2023/11/12 08:28:50;;;;;;;0.00;0.00;;;;;;;;;;5292251;23;20964;-92
2023/11/12 08:31:17;;;;;;;0.80;0.80;;;;;;;;;;4966409;29;20133;-91
2023/11/12 08:33:44;;;;;;;0.00;0.00;;;;;;;;;;4965446;29;20059;-91
2023/11/12 08:36:12;;;;;;;0.10;0.10;;;;;;;;;;4949356;29;20055;-91
2023/11/12 08:38:39;;;;;;;3.10;1.42;;;;;;;;;;4967379;28;20084;-91
2023/11/12 08:41:08;;;;;;;0.35;0.35;;;;;;;;;;4966849;29;20066;-90
2023/11/12 08:43:36;;;;;;;3.88;0.45;;;;;;;;;;4950181;29;20066;-91
2023/11/12 08:46:03;;;;;;;1.00;1.00;;;;;;;;;;4950449;29;20051;-92
2023/11/12 08:48:32;;;;;;;1.40;1.13;;;;;;;;;;4949177;28;20070;-91
2023/11/12 08:54:23;;;;;;;0.00;0.00;;;;;;;;;;4973698;28;20133;-90
2023/11/12 08:56:54;;;;;;;24.50;21.98;;;;;;;;;;4949073;29;20055;-90
2023/11/12 08:59:22;;;;;;;0.00;0.00;;;;;;;;;;4951614;29;20482;-91
2023/11/12 09:01:49;;;;;;;0.00;0.00;;;;;;;;;;4930212;29;20048;-89
2023/11/12 09:04:18;;;;;;;0.00;0.00;;;;;;;;;;4930942;29;20047;-90
2023/11/12 09:06:45;;;;;;;0.00;0.00;;;;;;;;;;4927488;29;20051;-90
2023/11/12 09:09:15;;;;;;;0.00;0.00;;;;;;;;;;4927089;29;20105;-90
2023/11/12 09:11:44;;;;;;;0.00;0.00;;;;;;;;;;4928065;29;20115;-89
2023/11/12 09:14:15;;;;;;;0.00;0.00;;;;;;;;;;4946426;29;20107;-91
2023/11/12 09:16:46;;;;;;;0.55;0.55;;;;;;;;;;4930101;29;20392;-90
2023/11/12 09:19:18;;;;;;;0.10;0.10;;;;;;;;;;4927725;29;20113;-89
2023/11/12 09:21:46;;;;;;;0.08;0.08;;;;;;;;;;4926426;29;20120;-89
2023/11/12 09:24:14;;;;;;;0.00;0.00;;;;;;;;;;4928072;29;20173;-90
2023/11/12 09:26:41;;;;;;;0.00;0.00;;;;;;;;;;4928624;29;20079;-90
2023/11/12 09:29:11;;;;;;;0.00;0.00;;;;;;;;;;4935240;29;20079;-91
2023/11/12 09:31:41;;;;;;;0.00;0.00;;;;;;;;;;4930008;29;20079;-91
2023/11/12 09:34:08;;;;;;;0.00;0.00;;;;;;;;;;4928399;29;20080;-90
2023/11/12 09:36:38;;;;;;;0.40;0.40;;;;;;;;;;5056237;23;20106;-90
2023/11/12 09:39:07;;;;;;;0.03;0.03;;;;;;;;;;4963757;29;20242;-90
2023/11/12 09:41:37;;;;;;;0.00;0.00;;;;;;;;;;4963866;29;20059;-90
2023/11/12 09:44:07;;;;;;;0.00;0.00;;;;;;;;;;4966605;28;20051;-90
2023/11/12 09:46:35;;;;;;;0.00;0.00;;;;;;;;;;4963236;29;20051;-90
2023/11/12 09:49:04;;;;;;;0.00;0.00;;;;;;;;;;4966039;29;20118;-89
2023/11/12 09:51:42;;;;;;;0.43;0.43;;;;;;;;;;4949531;29;20058;-90
2023/11/12 09:54:09;;;;;;;;;;;;;;;;;;4967360;28;20059;-90
2023/11/12 09:56:36;;;;;;;0.00;0.00;;;;;;;;;;4966333;29;19945;-89
2023/11/12 09:59:10;;;;;;;0.35;0.35;;;;;;;;;;4967123;29;20055;-90
2023/11/12 10:01:37;;;;;;;0.20;0.20;;;;;;;;;;4967128;29;20055;-91
2023/11/12 10:04:05;;;;;;;0.10;0.10;;;;;;;;;;4960327;28;20106;-91
2023/11/12 10:06:39;;;;;;;0.03;0.03;;;;;;;;;;4976944;29;20055;-91
2023/11/12 10:09:15;;;;;;;0.20;0.20;;;;;;;;;;4968014;28;20098;-90
2023/11/12 10:11:43;;;;;;;0.00;0.00;;;;;;;;;;4969148;29;20365;-89
2023/11/12 10:14:15;;;;;;;0.00;0.00;;;;;;;;;;4978598;28;20039;-90
2023/11/12 10:16:42;;;;;;;0.00;0.00;;;;;;;;;;4970412;28;20150;-90
2023/11/12 10:19:13;;;;;;;0.00;0.00;;;;;;;;;;4949988;29;20066;-89
2023/11/12 10:21:53;;;;;;;0.00;0.00;;;;;;;;;;4964836;29;20079;-90
2023/11/12 10:24:27;;;;;;;0.00;0.00;;;;;;;;;;4965195;29;20400;-90
2023/11/12 10:26:57;;;;;;;0.00;0.00;;;;;;;;;;4966279;29;20062;-89
2023/11/12 10:29:27;;;;;;;0.00;0.00;;;;;;;;;;4966273;29;20066;-90
2023/11/12 10:31:54;;;;;;;0.00;0.00;;;;;;;;;;4966715;29;20114;-89
2023/11/12 10:34:23;;;;;;;0.50;0.50;;;;;;;;;;4972309;28;20050;-91
2023/11/12 10:37:14;;;;;;;0.75;0.73;;;;;;;;;;4966427;29;20062;-90
2023/11/12 10:39:44;;;;;;;0.08;0.08;;;;;;;;;;4950752;29;20158;-90
2023/11/12 10:42:21;;;;;;;1.65;0.30;;;;;;;;;;4951408;29;20055;-91
2023/11/12 10:45:02;;;;;;;0.00;0.00;;;;;;;;;;4968778;29;20055;-91
2023/11/12 10:47:31;;;;;;;0.75;0.75;;;;;;;;;;4966208;29;20387;-90
2023/11/12 10:49:59;;;;;;;0.55;0.55;;;;;;;;;;4965949;29;20059;-91
2023/11/12 10:52:28;;;;;;;0.10;0.10;;;;;;;;;;4965418;29;20047;-91
2023/11/12 10:55:04;;;;;;;0.10;0.10;;;;;;;;;;4971729;28;20396;-91
2023/11/12 10:57:31;;;;;;;0.20;0.20;;;;;;;;;;4964016;29;20110;-90
2023/11/12 11:00:00;;;;;;;1.65;0.50;;;;;;;;;;4964922;29;20347;-90
2023/11/12 11:02:32;;;;;;;0.00;0.00;;;;;;;;;;4965302;28;20158;-90
2023/11/12 11:05:01;;;;;;;0.00;0.00;;;;;;;;;;4966134;29;20051;-88
2023/11/12 11:08:03;;;;;;;0.00;0.00;;;;;;;;;;5141594;27;20120;-86
2023/11/12 11:10:36;;;;;;;0.55;0.43;;;;;;;;;;5105530;28;20074;-89
2023/11/12 11:13:20;;;;;;;0.00;0.00;;;;;;;;;;5104743;28;20040;-89
2023/11/12 11:16:00;;;;;;;0.00;0.00;;;;;;;;;;5106765;28;20112;-88
2023/11/12 11:18:48;;;;;;;0.00;0.00;;;;;;;;;;5120246;28;20051;-88
2023/11/12 11:21:17;;;;;;;0.30;0.30;;;;;;;;;;5100737;28;20442;-89
2023/11/12 11:23:59;;;;;;;0.00;0.00;;;;;;;;;;5108672;28;20112;-88
2023/11/12 11:26:40;;;;;;;0.00;0.00;;;;;;;;;;5103141;28;20058;-88
2023/11/12 11:29:20;;;;;;;0.00;0.00;;;;;;;;;;5102117;28;20048;-88
2023/11/12 11:32:09;;;;;;;0.10;0.10;;;;;;;;;;5116172;28;20094;-88
2023/11/12 11:34:45;;;;;;;0.10;0.10;;;;;;;;;;5101227;28;20074;-88
2023/11/12 11:37:46;;;;;;;0.10;0.10;;;;;;;;;;5102137;28;20431;-89
2023/11/12 11:40:36;;;;;;;0.00;0.00;;;;;;;;;;5084374;28;20400;-88
2023/11/12 11:43:23;;;;;;;0.00;0.00;;;;;;;;;;5099551;28;20119;-87
2023/11/12 11:46:08;;;;;;;0.00;0.00;;;;;;;;;;5119103;28;20427;-90
2023/11/12 11:48:43;;;;;;;0.10;0.10;;;;;;;;;;5103043;28;20047;-91
2023/11/12 11:51:35;;;;;;;0.00;0.00;;;;;;;;;;5120450;28;20047;-89
2023/11/12 11:54:03;;;;;;;0.15;0.15;;;;;;;;;;5103711;28;20032;-90
2023/11/12 11:56:35;;;;;;;0.05;0.05;;;;;;;;;;5123257;28;20051;-90
2023/11/12 12:09:39;;;;;;;0.38;0.38;;;;;;;;;;5019475;28;20058;-91
2023/11/12 12:12:15;;;;;;;2.92;2.75;;;;;;;;;;5006461;28;20241;-89
2023/11/12 12:14:43;;;;;;;0.77;0.77;;;;;;;;;;5011332;28;20095;-90
2023/11/12 12:17:15;;;;;;;0.00;0.00;;;;;;;;;;5004666;28;20157;-91
2023/11/12 12:19:50;;;;;;;0.05;0.05;;;;;;;;;;5006430;28;20344;-90
2023/11/12 12:22:37;;;;;;;0.00;0.00;;;;;;;;;;4991683;28;20081;-91
2023/11/12 12:25:06;;;;;;;0.03;0.03;;;;;;;;;;4990650;28;20054;-90
2023/11/12 12:27:36;;;;;;;0.00;0.00;;;;;;;;;;4988923;28;20070;-91
2023/11/12 12:30:09;;;;;;;0.00;0.00;;;;;;;;;;4987367;28;20061;-90
2023/11/12 12:33:13;;;;;;;0.00;0.00;;;;;;;;;;5004851;28;20054;-89
2023/11/12 12:35:41;;;;;;;0.00;0.00;;;;;;;;;;4989840;28;20115;-90
2023/11/12 12:38:12;;;;;;;0.10;0.10;;;;;;;;;;4989353;28;20066;-90
2023/11/12 12:41:08;;;;;;;0.22;0.08;;;;;;;;;;4990426;28;20110;-90
2023/11/12 12:43:50;;;;;;;0.00;0.00;;;;;;;;;;4986973;28;20064;-89
2023/11/12 12:46:45;;;;;;;0.10;0.10;;;;;;;;;;4987450;28;20054;-89
2023/11/12 12:49:28;;;;;;;0.00;0.00;;;;;;;;;;4986144;28;20061;-90
2023/11/12 12:51:58;;;;;;;5.15;3.15;;;;;;;;;;4991543;28;20066;-90
2023/11/12 12:54:29;;;;;;;0.10;0.10;;;;;;;;;;5014212;28;20122;-90
2023/11/12 12:57:04;;;;;;;0.30;0.30;;;;;;;;;;4988321;28;20274;-90
2023/11/12 13:00:09;;;;;;;0.00;0.00;;;;;;;;;;5105664;23;20054;-90
2023/11/12 13:02:43;;;;;;;0.03;0.03;;;;;;;;;;5024067;28;20113;-91
2023/11/12 13:05:19;;;;;;;0.28;0.28;;;;;;;;;;5024558;28;20064;-90
2023/11/12 13:07:50;;;;;;;0.22;0.22;;;;;;;;;;5029621;28;20060;-91
2023/11/12 13:10:22;;;;;;;0.10;0.10;;;;;;;;;;5032376;28;20034;-90
2023/11/12 13:12:52;;;;;;;0.00;0.00;;;;;;;;;;5032263;28;20066;-93
2023/11/12 13:15:22;;;;;;;0.20;0.20;;;;;;;;;;5133789;23;20054;-90
2023/11/12 13:21:02;;;;;;;0.20;0.20;;;;;;;;;;5037402;22;20049;-91
2023/11/12 13:24:15;;;;;;;4.47;3.83;;;;;;;;;;5016713;28;20077;-91
2023/11/12 13:27:06;;;;;;;0.00;0.00;;;;;;;;;;5012499;28;20049;-89
2023/11/12 13:29:47;;;;;;;0.00;0.00;;;;;;;;;;5732423;22;20034;-89
2023/11/12 13:32:23;;;;;;;0.00;0.00;;;;;;;;;;5326617;23;20049;-93
2023/11/12 13:35:45;;;;;;;0.00;0.00;;;;;;;;;;5004841;28;20045;-91
2023/11/12 13:38:52;;;;;;;0.10;0.10;;;;;;;;;;5028889;28;20057;-91
2023/11/12 13:41:33;;;;;;;0.47;0.47;;;;;;;;;;5011370;28;20046;-90
2023/11/12 13:44:05;;;;;;;0.00;0.00;;;;;;;;;;5007810;28;20053;-91
2023/11/12 13:46:33;;;;;;;0.10;0.10;;;;;;;;;;5005330;28;20045;-90
2023/11/12 13:49:01;;;;;;;0.10;0.10;;;;;;;;;;5006647;28;20034;-90
2023/11/12 13:51:40;;;;;;;0.00;0.00;;;;;;;;;;5007150;28;20077;-90
2023/11/12 13:54:10;;;;;;;0.10;0.10;;;;;;;;;;5005859;28;20121;-91
2023/11/12 13:56:41;;;;;;;0.00;0.00;;;;;;;;;;5006994;28;20053;-91
2023/11/12 13:59:10;;;;;;;0.10;0.10;;;;;;;;;;5007106;28;20418;-90
2023/11/12 14:05:13;;;;;;;0.20;0.20;;;;;;;;;;4986357;28;20066;-90
2023/11/12 14:07:43;;;;;;;0.10;0.10;;;;;;;;;;5001437;28;20053;-90
2023/11/12 14:10:14;;;;;;;0.00;0.00;;;;;;;;;;5021555;28;20391;-89
2023/11/12 14:12:44;;;;;;;0.20;0.20;;;;;;;;;;5020685;28;20053;-89
2023/11/12 14:15:17;;;;;;;0.05;0.05;;;;;;;;;;5002365;28;20114;-89
2023/11/12 14:17:46;;;;;;;0.10;0.10;;;;;;;;;;5020595;28;20057;-90
2023/11/12 14:20:22;;;;;;;0.85;0.85;;;;;;;;;;5006285;28;20097;-91
2023/11/12 14:22:54;;;;;;;2.53;1.20;;;;;;;;;;5022340;28;20041;-92
2023/11/12 14:25:23;;;;;;;0.00;0.00;;;;;;;;;;5023044;28;20053;-91
2023/11/12 14:27:54;;;;;;;0.00;0.00;;;;;;;;;;5022071;28;20061;-90
2023/11/12 14:30:21;;;;;;;0.73;0.65;;;;;;;;;;5003740;28;20108;-92
2023/11/12 14:33:07;;;;;;;1.77;0.63;;;;;;;;;;5007000;28;20081;-90
2023/11/12 14:35:34;;;;;;;0.47;0.43;;;;;;;;;;5007871;28;20053;-90
2023/11/12 14:38:10;;;;;;;0.10;0.10;;;;;;;;;;5004571;28;20061;-91
2023/11/12 14:40:44;;;;;;;0.08;0.08;;;;;;;;;;5003768;28;20061;-89
2023/11/12 14:43:15;;;;;;;0.08;0.08;;;;;;;;;;5019583;28;20054;-90
2023/11/12 14:45:47;;;;;;;0.10;0.10;;;;;;;;;;5004549;28;20370;-92
2023/11/12 14:48:19;;;;;;;0.10;0.10;;;;;;;;;;5004438;28;20054;-90
2023/11/12 14:50:48;;;;;;;0.00;0.00;;;;;;;;;;5004767;28;20246;-91
2023/11/12 14:53:26;;;;;;;0.00;0.00;;;;;;;;;;5005401;28;20259;-91
2023/11/12 15:02:41;;;;;;;0.30;0.30;;;;;;;;;;5026397;28;20037;-90
2023/11/12 15:05:09;;;;;;;2.00;1.17;;;;;;;;;;5011740;28;20042;-90
2023/11/12 15:07:40;;;;;;;0.25;0.20;;;;;;;;;;5021272;28;20054;-89
2023/11/12 15:10:10;;;;;;;0.00;0.00;;;;;;;;;;5005136;28;20307;-90
2023/11/12 15:12:40;;;;;;;0.00;0.00;;;;;;;;;;5021605;28;20057;-90
2023/11/12 15:15:21;;;;;;;0.10;0.10;;;;;;;;;;5005418;28;20186;-91
2023/11/12 15:17:53;;;;;;;0.05;0.05;;;;;;;;;;5003380;28;20077;-90
2023/11/12 15:27:42;;;;;;;0.00;0.00;;;;;;;;;;5017735;28;20060;-89
2023/11/12 15:30:15;;;;;;;0.00;0.00;;;;;;;;;;5006584;28;20065;-90
2023/11/12 15:32:47;;;;;;;0.00;0.00;;;;;;;;;;5014790;28;20050;-90
2023/11/12 15:35:19;;;;;;;0.00;0.00;;;;;;;;;;5024023;28;20113;-91
2023/11/12 15:37:47;;;;;;;0.52;0.52;;;;;;;;;;5020593;28;20304;-91
2023/11/12 15:40:22;;;;;;;0.08;0.08;;;;;;;;;;5005567;28;20102;-91
2023/11/12 15:42:51;;;;;;;0.00;0.00;;;;;;;;;;5004482;28;20058;-90
2023/11/12 15:45:24;;;;;;;0.00;0.00;;;;;;;;;;5005556;28;20054;-91
2023/11/12 15:47:53;;;;;;;0.10;0.10;;;;;;;;;;5007485;28;20081;-89
2023/11/12 15:50:36;;;;;;;0.08;0.08;;;;;;;;;;5008708;28;20113;-90
2023/11/12 15:53:05;;;;;;;0.10;0.10;;;;;;;;;;5026909;28;20165;-90
2023/11/12 15:55:35;;;;;;;0.00;0.00;;;;;;;;;;5009179;28;20050;-91
2023/11/12 15:58:06;;;;;;;0.10;0.10;;;;;;;;;;5008207;28;20156;-91
2023/11/12 16:00:37;;;;;;;0.00;0.00;;;;;;;;;;5010031;28;20140;-90